createdAt,value
2018-07-11T04:01:02.634Z,12.76
2018-07-11T04:02:02.508Z,12.78
2018-07-11T04:03:55.195Z,12.83
2018-07-11T04:04:55.087Z,12.88
2018-07-11T04:06:47.940Z,12.83
2018-07-11T04:07:47.642Z,12.86
2018-07-11T04:09:40.341Z,12.84
2018-07-11T04:10:40.214Z,12.77
2018-07-11T04:12:32.910Z,12.86
2018-07-11T04:13:32.797Z,12.84
2018-07-11T04:15:25.462Z,12.91
2018-07-11T04:16:25.360Z,12.98
2018-07-11T04:18:18.049Z,12.94
2018-07-11T04:19:17.923Z,12.86
2018-07-11T04:21:10.603Z,12.99
2018-07-11T04:22:10.494Z,12.95
2018-07-11T04:24:03.188Z,12.98
2018-07-11T04:25:03.066Z,12.95
2018-07-11T04:26:55.740Z,12.84
2018-07-11T04:27:55.625Z,12.86
2018-07-11T04:29:48.969Z,12.86
2018-07-11T04:30:48.204Z,12.94
2018-07-11T04:32:40.887Z,12.86
2018-07-11T04:33:40.775Z,12.96
2018-07-11T04:35:33.473Z,12.99
2018-07-11T04:36:33.351Z,12.91
2018-07-11T04:38:26.030Z,13.06
2018-07-11T04:39:25.917Z,13.07
2018-07-11T04:41:18.617Z,13.06
2018-07-11T04:42:18.496Z,13.14
2018-07-11T04:44:11.163Z,13.11
2018-07-11T04:45:11.061Z,13.13
2018-07-11T04:47:03.755Z,13.17
2018-07-11T04:48:03.627Z,13.16
2018-07-11T04:49:56.312Z,13.19
2018-07-11T04:50:56.208Z,13.11
2018-07-11T04:52:48.970Z,13.13
2018-07-11T04:53:48.787Z,13.17
2018-07-11T04:55:41.486Z,13.14
2018-07-11T04:56:41.359Z,13.24
2018-07-11T04:58:34.033Z,13.17
2018-07-11T04:59:33.919Z,13.19
2018-07-11T05:01:26.632Z,13.16
2018-07-11T05:02:26.490Z,13.21
2018-07-11T05:04:19.166Z,13.27
2018-07-11T05:05:19.063Z,13.24
2018-07-11T05:07:11.754Z,13.29
2018-07-11T05:08:11.634Z,13.29
2018-07-11T05:10:04.305Z,13.27
2018-07-11T05:11:04.230Z,13.42
2018-07-11T05:12:56.903Z,13.37
2018-07-11T05:13:56.766Z,13.44
2018-07-11T05:15:49.440Z,13.45
2018-07-11T05:16:49.334Z,13.47
2018-07-11T05:18:42.031Z,13.50
2018-07-11T05:19:41.899Z,13.58
2018-07-11T05:21:34.614Z,13.73
2018-07-11T05:22:34.486Z,13.73
2018-07-11T05:24:27.148Z,13.72
2018-07-11T05:25:27.048Z,13.81
2018-07-11T05:27:19.745Z,13.84
2018-07-11T05:28:19.617Z,13.90
2018-07-11T05:30:12.298Z,13.97
2018-07-11T05:31:12.196Z,14.03
2018-07-11T05:33:04.882Z,14.15
2018-07-11T05:34:04.759Z,14.11
2018-07-11T05:35:57.450Z,14.31
2018-07-11T05:36:57.340Z,14.36
2018-07-11T05:38:50.036Z,14.44
2018-07-11T05:39:49.908Z,14.66
2018-07-11T05:41:42.590Z,14.71
2018-07-11T05:42:42.487Z,14.87
2018-07-11T05:44:35.176Z,14.89
2018-07-11T05:45:35.053Z,14.90
2018-07-11T05:47:27.725Z,14.95
2018-07-11T05:48:27.620Z,15.07
2018-07-11T05:50:20.327Z,15.08
2018-07-11T05:51:20.197Z,15.15
2018-07-11T05:53:12.880Z,15.31
2018-07-11T05:54:12.780Z,15.52
2018-07-11T05:56:05.469Z,15.62
2018-07-11T05:57:05.349Z,15.67
2018-07-11T05:58:58.049Z,15.60
2018-07-11T05:59:57.939Z,15.56
2018-07-11T06:01:50.605Z,15.51
2018-07-11T06:02:50.514Z,15.43
2018-07-11T06:04:43.204Z,15.55
2018-07-11T06:05:43.079Z,15.53
2018-07-11T06:07:35.753Z,15.49
2018-07-11T06:08:35.647Z,15.71
2018-07-11T06:10:28.347Z,15.83
2018-07-11T06:11:28.223Z,16.00
2018-07-11T06:13:20.920Z,16.16
2018-07-11T06:14:20.792Z,16.33
2018-07-11T06:16:13.543Z,16.48
2018-07-11T06:17:13.370Z,16.52
2018-07-11T06:19:06.055Z,16.51
2018-07-11T06:20:05.963Z,16.48
2018-07-11T06:21:58.652Z,16.57
2018-07-11T06:22:58.523Z,16.45
2018-07-11T06:24:51.237Z,16.51
2018-07-11T06:25:51.101Z,16.47
2018-07-11T06:27:43.784Z,16.59
2018-07-11T06:28:43.680Z,16.54
2018-07-11T06:30:36.388Z,16.77
2018-07-11T06:31:36.265Z,16.72
2018-07-11T06:33:29.033Z,17.05
2018-07-11T06:34:28.887Z,17.09
2018-07-11T06:36:21.604Z,17.45
2018-07-11T06:37:21.478Z,17.68
2018-07-11T06:39:14.358Z,18.10
2018-07-11T06:40:14.060Z,18.10
2018-07-11T06:42:06.844Z,18.27
2018-07-11T06:43:06.651Z,18.32
2018-07-11T06:44:59.325Z,18.13
2018-07-11T06:45:59.219Z,18.20
2018-07-11T06:47:51.929Z,18.57
2018-07-11T06:48:51.809Z,18.84
2018-07-11T06:50:44.501Z,19.19
2018-07-11T06:51:44.395Z,19.50
2018-07-11T06:53:37.100Z,19.80
2018-07-11T06:54:36.984Z,19.70
2018-07-11T06:56:29.694Z,19.87
2018-07-11T06:57:29.596Z,20.37
2018-07-11T06:59:22.269Z,21.28
2018-07-11T07:00:22.168Z,21.96
2018-07-11T07:02:14.892Z,23.44
2018-07-11T07:03:14.766Z,23.82
2018-07-11T07:05:07.474Z,21.85
2018-07-11T07:06:07.357Z,21.41
2018-07-11T07:08:00.076Z,20.60
2018-07-11T07:08:59.956Z,20.46
2018-07-11T07:10:52.663Z,20.40
2018-07-11T07:11:52.598Z,20.19
2018-07-11T07:13:45.272Z,20.04
2018-07-11T07:14:45.155Z,20.38
2018-07-11T07:16:37.901Z,20.97
2018-07-11T07:17:37.757Z,21.30
2018-07-11T07:19:30.453Z,21.89
2018-07-11T07:20:30.343Z,22.38
2018-07-11T07:22:23.082Z,22.48
2018-07-11T07:23:22.930Z,21.58
2018-07-11T07:25:15.668Z,21.11
2018-07-11T07:26:15.540Z,21.06
2018-07-11T07:28:08.226Z,20.46
2018-07-11T07:29:08.142Z,20.42
2018-07-11T07:31:00.848Z,20.19
2018-07-11T07:32:00.731Z,20.25
2018-07-11T07:33:53.415Z,20.22
2018-07-11T07:34:53.319Z,20.11
2018-07-11T07:36:46.064Z,20.00
2018-07-11T07:37:45.917Z,19.98
2018-07-11T07:39:38.600Z,19.83
2018-07-11T07:40:38.501Z,19.68
2018-07-11T07:42:31.202Z,19.65
2018-07-11T07:43:31.084Z,19.65
2018-07-11T07:45:23.779Z,19.55
2018-07-11T07:46:23.678Z,19.47
2018-07-11T07:48:16.393Z,19.55
2018-07-11T07:49:16.280Z,19.61
2018-07-11T07:51:09.110Z,19.64
2018-07-11T07:52:08.865Z,19.75
2018-07-11T07:54:01.573Z,20.01
2018-07-11T07:55:01.449Z,20.02
2018-07-11T07:56:54.163Z,20.30
2018-07-11T07:57:54.038Z,20.26
2018-07-11T07:59:46.723Z,20.42
2018-07-11T08:00:46.616Z,20.44
2018-07-11T08:02:39.330Z,20.81
2018-07-11T08:03:39.217Z,20.68
2018-07-11T08:05:31.898Z,20.35
2018-07-11T08:06:31.797Z,20.23
2018-07-11T08:08:24.508Z,20.20
2018-07-11T08:09:24.392Z,20.16
2018-07-11T08:11:17.082Z,20.37
2018-07-11T08:12:17.033Z,20.30
2018-07-11T08:14:09.693Z,20.64
2018-07-11T08:15:09.576Z,20.75
2018-07-11T08:17:02.264Z,20.58
2018-07-11T08:18:02.164Z,20.63
2018-07-11T08:19:54.872Z,20.79
2018-07-11T08:20:54.760Z,20.74
2018-07-11T08:22:47.449Z,20.79
2018-07-11T08:23:47.350Z,20.63
2018-07-11T08:25:40.065Z,20.58
2018-07-11T08:26:39.943Z,20.64
2018-07-11T08:28:32.643Z,20.67
2018-07-11T08:29:32.584Z,20.86
2018-07-11T08:31:25.211Z,20.67
2018-07-11T08:32:25.115Z,20.68
2018-07-11T08:34:17.840Z,20.56
2018-07-11T08:35:17.702Z,20.61
2018-07-11T08:37:10.402Z,20.44
2018-07-11T08:38:10.289Z,20.42
2018-07-11T08:40:03.002Z,20.18
2018-07-11T08:41:02.880Z,19.95
2018-07-11T08:42:55.567Z,19.95
2018-07-11T08:43:55.467Z,19.87
2018-07-11T08:45:48.183Z,19.74
2018-07-11T08:46:48.058Z,19.63
2018-07-11T08:48:40.752Z,19.55
2018-07-11T08:49:40.646Z,19.53
2018-07-11T08:51:33.350Z,19.68
2018-07-11T08:52:33.223Z,19.80
2018-07-11T08:54:25.927Z,19.60
2018-07-11T08:55:25.835Z,19.50
2018-07-11T08:57:18.531Z,19.53
2018-07-11T08:58:18.408Z,19.61
2018-07-11T09:00:11.104Z,19.50
2018-07-11T09:01:10.999Z,19.53
2018-07-11T09:03:03.735Z,19.47
2018-07-11T09:04:03.616Z,19.55
2018-07-11T09:05:56.382Z,19.42
2018-07-11T09:06:56.197Z,19.25
2018-07-11T09:08:48.915Z,19.09
2018-07-11T09:09:48.784Z,19.07
2018-07-11T09:11:41.504Z,18.97
2018-07-11T09:12:41.373Z,18.97
2018-07-11T09:14:34.061Z,18.91
2018-07-11T09:15:33.950Z,18.82
2018-07-11T09:17:26.657Z,18.76
2018-07-11T09:18:26.539Z,18.75
2018-07-11T09:20:19.226Z,18.90
2018-07-11T09:21:19.122Z,18.89
2018-07-11T09:23:11.833Z,19.07
2018-07-11T09:24:11.760Z,19.20
2018-07-11T09:26:04.545Z,19.50
2018-07-11T09:27:04.290Z,19.52
2018-07-11T09:28:57.011Z,20.04
2018-07-11T09:29:56.872Z,20.11
2018-07-11T09:31:49.562Z,20.27
2018-07-11T09:32:49.457Z,20.35
2018-07-11T09:34:42.182Z,20.57
2018-07-11T09:35:42.043Z,20.74
2018-07-11T09:37:34.782Z,20.86
2018-07-11T09:38:34.660Z,20.82
2018-07-11T09:40:27.343Z,20.82
2018-07-11T09:41:27.226Z,21.19
2018-07-11T09:43:19.930Z,21.01
2018-07-11T09:44:19.819Z,20.75
2018-07-11T09:46:12.508Z,20.85
2018-07-11T09:47:12.412Z,20.86
2018-07-11T09:49:05.117Z,20.94
2018-07-11T09:50:05.022Z,20.98
2018-07-11T09:51:57.677Z,20.72
2018-07-11T09:52:57.584Z,20.76
2018-07-11T09:54:50.296Z,20.93
2018-07-11T09:55:50.184Z,20.82
2018-07-11T09:57:42.882Z,20.96
2018-07-11T09:58:42.787Z,20.93
2018-07-11T10:00:35.479Z,21.00
2018-07-11T10:01:35.366Z,20.91
2018-07-11T10:03:28.070Z,20.86
2018-07-11T10:04:27.966Z,20.76
2018-07-11T10:06:20.645Z,20.64
2018-07-11T10:07:20.541Z,20.56
2018-07-11T10:09:13.248Z,20.40
2018-07-11T10:10:13.135Z,20.38
2018-07-11T10:12:05.818Z,20.38
2018-07-11T10:13:05.721Z,20.30
2018-07-11T10:14:58.433Z,20.44
2018-07-11T10:15:58.308Z,20.42
2018-07-11T10:17:51.007Z,20.34
2018-07-11T10:18:50.899Z,20.34
2018-07-11T10:20:43.616Z,20.23
2018-07-11T10:21:43.565Z,20.20
2018-07-11T10:23:36.208Z,20.29
2018-07-11T10:24:36.076Z,20.41
2018-07-11T10:26:28.764Z,20.30
2018-07-11T10:27:28.663Z,20.49
2018-07-11T10:29:21.544Z,20.76
2018-07-11T10:30:21.247Z,20.75
2018-07-11T10:32:13.955Z,20.79
2018-07-11T10:33:13.830Z,20.71
2018-07-11T10:35:06.545Z,20.72
2018-07-11T10:36:06.439Z,20.81
2018-07-11T10:37:59.108Z,20.44
2018-07-11T10:38:59.014Z,20.56
2018-07-11T10:40:51.708Z,20.38
2018-07-11T10:41:51.590Z,20.40
2018-07-11T10:43:44.272Z,20.53
2018-07-11T10:44:44.181Z,20.60
2018-07-11T10:46:36.885Z,20.88
2018-07-11T10:47:36.765Z,20.88
2018-07-11T10:49:29.465Z,20.97
2018-07-11T10:50:29.407Z,21.06
2018-07-11T10:52:22.070Z,21.13
2018-07-11T10:53:21.955Z,21.25
2018-07-11T10:55:14.648Z,21.22
2018-07-11T10:56:14.551Z,21.04
2018-07-11T10:58:07.271Z,21.00
2018-07-11T10:59:07.161Z,21.12
2018-07-11T11:01:05.698Z,21.19
2018-07-11T11:01:59.740Z,21.09
2018-07-11T11:03:52.445Z,20.96
2018-07-11T11:04:52.388Z,20.67
2018-07-11T11:06:45.011Z,20.48
2018-07-11T11:07:44.915Z,20.41
2018-07-11T11:09:37.623Z,20.37
2018-07-11T11:10:37.503Z,20.40
2018-07-11T11:12:30.198Z,20.40
2018-07-11T11:13:30.088Z,20.41
2018-07-11T11:15:22.774Z,20.20
2018-07-11T11:16:22.672Z,20.01
2018-07-11T11:18:15.371Z,19.78
2018-07-11T11:19:15.254Z,19.64
2018-07-11T11:21:07.933Z,19.55
2018-07-11T11:22:07.836Z,19.43
2018-07-11T11:24:00.544Z,19.38
2018-07-11T11:25:00.431Z,19.32
2018-07-11T11:26:53.117Z,19.17
2018-07-11T11:27:53.019Z,19.15
2018-07-11T11:29:45.723Z,19.06
2018-07-11T11:30:45.603Z,19.02
2018-07-11T11:32:38.297Z,18.76
2018-07-11T11:33:38.196Z,18.72
2018-07-11T11:35:30.895Z,18.72
2018-07-11T11:36:30.771Z,18.66
2018-07-11T11:38:23.486Z,18.72
2018-07-11T11:39:23.363Z,18.68
2018-07-11T11:41:16.051Z,18.50
2018-07-11T11:42:16.131Z,18.49
2018-07-11T11:44:08.649Z,18.44
2018-07-11T11:45:08.532Z,18.49
2018-07-11T11:47:01.236Z,18.49
2018-07-11T11:48:01.128Z,18.49
2018-07-11T11:49:53.826Z,18.45
2018-07-11T11:50:53.709Z,18.39
2018-07-11T11:52:46.417Z,18.60
2018-07-11T11:53:46.290Z,18.61
2018-07-11T11:55:38.993Z,18.81
2018-07-11T11:56:38.869Z,18.79
2018-07-11T11:58:31.565Z,18.90
2018-07-11T11:59:31.455Z,18.90
2018-07-11T12:01:24.161Z,18.86
2018-07-11T12:02:24.037Z,18.87
2018-07-11T12:04:16.724Z,18.93
2018-07-11T12:05:16.625Z,18.97
2018-07-11T12:07:09.377Z,19.07
2018-07-11T12:08:09.201Z,19.12
2018-07-11T12:10:01.909Z,19.06
2018-07-11T12:11:01.785Z,19.20
2018-07-11T12:12:54.471Z,19.20
2018-07-11T12:13:54.370Z,19.13
2018-07-11T12:15:47.070Z,19.10
2018-07-11T12:16:46.951Z,19.19
2018-07-11T12:18:39.641Z,19.16
2018-07-11T12:19:39.541Z,19.19
2018-07-11T12:21:32.518Z,19.27
2018-07-11T12:22:32.123Z,19.20
2018-07-11T12:24:24.808Z,19.12
2018-07-11T12:25:24.707Z,19.16
2018-07-11T12:27:17.412Z,19.19
2018-07-11T12:28:17.288Z,19.32
2018-07-11T12:30:09.974Z,19.47
2018-07-11T12:31:09.872Z,19.46
2018-07-11T12:33:02.576Z,19.52
2018-07-11T12:34:02.461Z,19.56
2018-07-11T12:35:55.137Z,19.55
2018-07-11T12:36:55.044Z,19.64
2018-07-11T12:38:47.744Z,19.67
2018-07-11T12:39:47.626Z,19.72
2018-07-11T12:41:40.315Z,19.71
2018-07-11T12:42:40.217Z,19.71
2018-07-11T12:44:32.919Z,19.70
2018-07-11T12:45:32.807Z,19.61
2018-07-11T12:47:25.513Z,19.50
2018-07-11T12:48:25.391Z,19.63
2018-07-11T12:50:18.073Z,19.50
2018-07-11T12:51:17.979Z,19.61
2018-07-11T12:53:10.682Z,19.56
2018-07-11T12:54:10.560Z,19.43
2018-07-11T12:56:03.392Z,19.28
2018-07-11T12:57:03.149Z,19.23
2018-07-11T12:58:56.018Z,19.09
2018-07-11T12:59:55.900Z,19.09
2018-07-11T13:01:48.570Z,19.06
2018-07-11T13:02:48.476Z,19.02
2018-07-11T13:04:41.181Z,19.12
2018-07-11T13:05:41.061Z,18.96
2018-07-11T13:07:33.772Z,18.90
2018-07-11T13:08:33.657Z,18.87
2018-07-11T13:10:26.345Z,18.81
2018-07-11T13:11:26.241Z,18.82
2018-07-11T13:13:18.947Z,18.63
2018-07-11T13:14:18.826Z,18.59
2018-07-11T13:16:11.603Z,18.49
2018-07-11T13:17:11.394Z,18.47
2018-07-11T13:19:04.102Z,18.41
2018-07-11T13:20:03.976Z,18.34
2018-07-11T13:21:56.660Z,18.31
2018-07-11T13:22:56.555Z,18.29
2018-07-11T13:24:49.256Z,18.31
2018-07-11T13:25:49.137Z,18.21
2018-07-11T13:27:41.842Z,18.39
2018-07-11T13:28:41.717Z,18.35
2018-07-11T13:30:34.420Z,18.53
2018-07-11T13:31:34.299Z,18.53
2018-07-11T13:33:26.997Z,18.53
2018-07-11T13:34:26.875Z,18.56
2018-07-11T13:36:19.563Z,18.66
2018-07-11T13:37:19.464Z,18.66
2018-07-11T13:39:12.160Z,19.02
2018-07-11T13:40:12.038Z,19.23
2018-07-11T13:42:04.719Z,19.57
2018-07-11T13:43:04.617Z,19.57
2018-07-11T13:44:57.318Z,19.80
2018-07-11T13:45:57.195Z,20.01
2018-07-11T13:47:49.875Z,20.12
2018-07-11T13:48:49.777Z,20.20
2018-07-11T13:50:42.483Z,20.23
2018-07-11T13:51:42.363Z,20.34
2018-07-11T13:53:35.071Z,20.42
2018-07-11T13:54:34.958Z,20.44
2018-07-11T13:56:27.643Z,20.49
2018-07-11T13:57:27.541Z,20.42
2018-07-11T13:59:20.239Z,20.78
2018-07-11T14:00:20.129Z,20.81
2018-07-11T14:02:12.814Z,20.88
2018-07-11T14:03:12.716Z,20.81
2018-07-11T14:05:05.417Z,20.78
2018-07-11T14:06:05.294Z,20.68
2018-07-11T14:07:57.994Z,20.64
2018-07-11T14:08:57.885Z,20.60
2018-07-11T14:10:50.596Z,20.29
2018-07-11T14:11:50.477Z,20.32
2018-07-11T14:13:43.173Z,20.60
2018-07-11T14:14:43.068Z,20.67
2018-07-11T14:16:35.786Z,21.04
2018-07-11T14:17:35.672Z,21.13
2018-07-11T14:19:28.383Z,21.27
2018-07-11T14:20:28.333Z,21.40
2018-07-11T14:22:20.948Z,21.76
2018-07-11T14:23:20.846Z,22.09
2018-07-11T14:25:13.550Z,22.30
2018-07-11T14:26:13.439Z,22.34
2018-07-11T14:28:06.155Z,22.45
2018-07-11T14:29:06.052Z,22.45
2018-07-11T14:30:58.756Z,22.54
2018-07-11T14:31:58.637Z,22.22
2018-07-11T14:33:51.342Z,21.78
2018-07-11T14:34:51.244Z,21.74
2018-07-11T14:36:43.948Z,21.41
2018-07-11T14:37:43.826Z,21.40
2018-07-11T14:39:36.517Z,21.59
2018-07-11T14:40:36.413Z,21.67
2018-07-11T14:42:29.132Z,21.70
2018-07-11T14:43:29.018Z,21.67
2018-07-11T14:45:21.724Z,21.53
2018-07-11T14:46:21.599Z,21.27
2018-07-11T14:48:14.294Z,21.49
2018-07-11T14:49:14.203Z,21.56
2018-07-11T14:51:06.910Z,21.64
2018-07-11T14:52:06.788Z,21.56
2018-07-11T14:53:59.478Z,21.49
2018-07-11T14:54:59.381Z,21.40
2018-07-11T14:56:52.088Z,21.45
2018-07-11T14:57:51.971Z,21.52
2018-07-11T14:59:44.659Z,21.70
2018-07-11T15:00:44.564Z,21.80
2018-07-11T15:02:37.263Z,21.83
2018-07-11T15:03:37.145Z,21.70
2018-07-11T15:05:29.837Z,21.97
2018-07-11T15:06:29.738Z,22.02
2018-07-11T15:08:22.527Z,21.97
2018-07-11T15:09:22.550Z,21.89
2018-07-11T15:11:15.042Z,21.92
2018-07-11T15:12:14.929Z,21.90
2018-07-11T15:14:07.616Z,22.00
2018-07-11T15:15:07.519Z,21.83
2018-07-11T15:17:00.249Z,21.62
2018-07-11T15:18:00.119Z,21.51
2018-07-11T15:19:52.831Z,21.41
2018-07-11T15:20:52.730Z,21.34
2018-07-11T15:22:45.439Z,21.22
2018-07-11T15:23:45.321Z,20.93
2018-07-11T15:25:38.014Z,20.81
2018-07-11T15:26:37.917Z,20.75
2018-07-11T15:28:30.641Z,20.71
2018-07-11T15:29:30.512Z,20.56
2018-07-11T15:31:23.228Z,20.40
2018-07-11T15:32:23.106Z,20.32
2018-07-11T15:34:15.793Z,20.48
2018-07-11T15:35:15.693Z,20.41
2018-07-11T15:37:08.417Z,20.35
2018-07-11T15:38:08.288Z,20.42
2018-07-11T15:40:00.975Z,20.46
2018-07-11T15:41:00.879Z,20.49
2018-07-11T15:42:53.757Z,20.41
2018-07-11T15:43:53.631Z,20.41
2018-07-11T15:45:46.321Z,20.25
2018-07-11T15:46:46.219Z,20.32
2018-07-11T15:48:38.921Z,20.27
2018-07-11T15:49:38.804Z,20.34
2018-07-11T15:51:31.495Z,20.46
2018-07-11T15:52:31.388Z,20.37
2018-07-11T15:54:24.106Z,20.30
2018-07-11T15:55:23.982Z,20.35
2018-07-11T15:57:16.669Z,20.11
2018-07-11T15:58:16.568Z,20.19
2018-07-11T16:00:09.265Z,20.15
2018-07-11T16:01:09.146Z,20.22
2018-07-11T16:03:01.857Z,20.19
2018-07-11T16:04:01.744Z,20.18
2018-07-11T16:05:54.434Z,20.20
2018-07-11T16:06:54.328Z,20.11
2018-07-11T16:08:47.025Z,20.19
2018-07-11T16:09:46.910Z,20.37
2018-07-11T16:11:39.605Z,20.25
2018-07-11T16:12:39.492Z,20.19
2018-07-11T16:14:32.195Z,20.22
2018-07-11T16:15:32.069Z,20.22
2018-07-11T16:17:24.761Z,20.25
2018-07-11T16:18:24.722Z,20.23
2018-07-11T16:20:17.367Z,20.30
2018-07-11T16:21:17.247Z,20.30
2018-07-11T16:23:09.935Z,20.38
2018-07-11T16:24:09.833Z,20.27
2018-07-11T16:26:02.540Z,20.35
2018-07-11T16:27:02.414Z,20.29
2018-07-11T16:28:55.120Z,20.18
2018-07-11T16:29:55.005Z,20.18
2018-07-11T16:31:47.928Z,20.16
2018-07-11T16:32:47.600Z,20.12
2018-07-11T16:34:40.305Z,20.05
2018-07-11T16:35:40.181Z,20.02
2018-07-11T16:37:32.864Z,19.79
2018-07-11T16:38:32.780Z,19.75
2018-07-11T16:40:25.459Z,19.78
2018-07-11T16:41:25.343Z,19.74
2018-07-11T16:43:18.032Z,19.49
2018-07-11T16:44:17.927Z,19.63
2018-07-11T16:46:10.635Z,19.49
2018-07-11T16:47:10.511Z,19.43
2018-07-11T16:49:03.198Z,19.43
2018-07-11T16:50:03.090Z,19.49
2018-07-11T16:51:55.807Z,19.43
2018-07-11T16:52:55.680Z,19.46
2018-07-11T16:54:48.370Z,19.50
2018-07-11T16:55:48.271Z,19.46
2018-07-11T16:57:40.976Z,19.53
2018-07-11T16:58:40.856Z,19.46
2018-07-11T17:00:33.607Z,19.31
2018-07-11T17:01:33.504Z,19.32
2018-07-11T17:03:26.203Z,19.30
2018-07-11T17:04:26.081Z,19.20
2018-07-11T17:06:18.786Z,19.17
2018-07-11T17:07:18.660Z,19.15
2018-07-11T17:09:11.346Z,19.13
2018-07-11T17:10:11.245Z,18.96
2018-07-11T17:12:03.950Z,18.97
2018-07-11T17:13:03.841Z,19.00
2018-07-11T17:14:56.508Z,18.93
2018-07-11T17:15:56.404Z,18.97
2018-07-11T17:17:49.111Z,18.99
2018-07-11T17:18:48.982Z,18.96
2018-07-11T17:20:41.663Z,18.91
2018-07-11T17:21:41.560Z,18.81
2018-07-11T17:23:34.254Z,18.75
2018-07-11T17:24:34.138Z,18.75
2018-07-11T17:26:26.820Z,18.69
2018-07-11T17:27:26.720Z,18.69
2018-07-11T17:29:19.425Z,18.71
2018-07-11T17:30:19.299Z,18.68
2018-07-11T17:32:11.996Z,18.65
2018-07-11T17:33:11.874Z,18.71
2018-07-11T17:35:04.557Z,18.65
2018-07-11T17:36:04.462Z,18.71
2018-07-11T17:37:57.160Z,18.74
2018-07-11T17:38:57.068Z,18.66
2018-07-11T17:40:49.717Z,18.75
2018-07-11T17:41:49.615Z,18.78
2018-07-11T17:43:42.319Z,18.78
2018-07-11T17:44:42.194Z,18.86
2018-07-11T17:46:34.872Z,18.97
2018-07-11T17:47:34.794Z,18.97
2018-07-11T17:49:27.475Z,19.12
2018-07-11T17:50:27.351Z,19.16
2018-07-11T17:52:20.054Z,19.31
2018-07-11T17:53:19.953Z,19.42
2018-07-11T17:55:12.657Z,19.38
2018-07-11T17:56:12.539Z,19.27
2018-07-11T17:58:05.222Z,19.20
2018-07-11T17:59:05.125Z,19.17
2018-07-11T18:00:57.830Z,19.09
2018-07-11T18:01:57.710Z,19.15
2018-07-11T18:03:50.406Z,19.27
2018-07-11T18:04:50.318Z,19.10
2018-07-11T18:06:43.010Z,19.10
2018-07-11T18:07:42.875Z,19.06
2018-07-11T18:09:35.580Z,18.97
2018-07-11T18:10:35.459Z,18.97
2018-07-11T18:12:28.144Z,18.96
2018-07-11T18:13:28.046Z,19.00
2018-07-11T18:15:20.745Z,19.10
2018-07-11T18:16:20.653Z,19.07
2018-07-11T18:18:13.311Z,19.05
2018-07-11T18:19:13.266Z,19.05
2018-07-11T18:21:05.913Z,19.07
2018-07-11T18:22:05.798Z,19.13
2018-07-11T18:23:58.494Z,19.09
2018-07-11T18:24:58.374Z,19.30
2018-07-11T18:26:51.056Z,19.23
2018-07-11T18:27:50.952Z,19.16
2018-07-11T18:29:43.671Z,19.35
2018-07-11T18:30:43.543Z,19.40
2018-07-11T18:32:36.224Z,19.31
2018-07-11T18:33:36.124Z,19.40
2018-07-11T18:35:28.832Z,19.32
2018-07-11T18:36:28.705Z,19.34
2018-07-11T18:38:21.392Z,19.27
2018-07-11T18:39:21.286Z,19.30
2018-07-11T18:41:14.141Z,19.24
2018-07-11T18:42:13.864Z,19.34
2018-07-11T18:44:06.561Z,19.34
2018-07-11T18:45:06.445Z,19.31
2018-07-11T18:46:59.302Z,19.25
2018-07-11T18:47:59.029Z,19.28
2018-07-11T18:49:51.715Z,19.23
2018-07-11T18:50:51.613Z,19.25
2018-07-11T18:52:44.329Z,19.23
2018-07-11T18:53:44.212Z,19.23
2018-07-11T18:55:36.897Z,19.17
2018-07-11T18:56:36.793Z,19.07
2018-07-11T18:58:29.500Z,18.94
2018-07-11T18:59:29.382Z,18.99
2018-07-11T19:01:22.086Z,18.84
2018-07-11T19:02:21.961Z,18.81
2018-07-11T19:04:14.646Z,18.78
2018-07-11T19:05:14.541Z,18.72
2018-07-11T19:07:07.253Z,18.75
2018-07-11T19:08:07.129Z,18.68
2018-07-11T19:09:59.805Z,18.68
2018-07-11T19:10:59.714Z,18.69
2018-07-11T19:12:52.543Z,18.61
2018-07-11T19:13:52.337Z,18.57
2018-07-11T19:15:45.019Z,18.47
2018-07-11T19:16:44.915Z,18.50
2018-07-11T19:18:37.618Z,18.51
2018-07-11T19:19:37.489Z,18.54
2018-07-11T19:21:30.196Z,18.45
2018-07-11T19:22:30.103Z,18.56
2018-07-11T19:24:22.796Z,18.47
2018-07-11T19:25:22.729Z,18.50
2018-07-11T19:27:15.347Z,18.49
2018-07-11T19:28:15.248Z,18.45
2018-07-11T19:30:07.946Z,18.47
2018-07-11T19:31:07.825Z,18.44
2018-07-11T19:33:00.506Z,18.50
2018-07-11T19:34:00.401Z,18.54
2018-07-11T19:35:53.103Z,18.51
2018-07-11T19:36:52.984Z,18.54
2018-07-11T19:38:45.687Z,18.53
2018-07-11T19:39:45.565Z,18.56
2018-07-11T19:41:38.266Z,18.61
2018-07-11T19:42:38.156Z,18.50
2018-07-11T19:44:30.863Z,18.57
2018-07-11T19:45:30.750Z,18.54
2018-07-11T19:47:23.486Z,18.56
2018-07-11T19:48:23.753Z,18.61
2018-07-11T19:50:16.084Z,18.60
2018-07-11T19:51:15.958Z,18.49
2018-07-11T19:53:08.650Z,18.60
2018-07-11T19:54:08.542Z,18.59
2018-07-11T19:56:01.246Z,18.51
2018-07-11T19:57:01.126Z,18.53
2018-07-11T19:58:53.837Z,18.61
2018-07-11T19:59:54.203Z,18.60
2018-07-11T20:01:46.402Z,18.45
2018-07-11T20:02:46.298Z,18.49
2018-07-11T20:04:39.491Z,18.49
2018-07-11T20:05:39.049Z,18.45
2018-07-11T20:07:31.735Z,18.45
2018-07-11T20:08:31.739Z,18.51
2018-07-11T20:10:24.338Z,18.44
2018-07-11T20:11:24.221Z,18.39
2018-07-11T20:13:16.931Z,18.39
2018-07-11T20:14:16.828Z,18.34
2018-07-11T20:16:09.544Z,18.41
2018-07-11T20:17:09.410Z,18.35
2018-07-11T20:19:02.090Z,18.41
2018-07-11T20:20:02.004Z,18.34
2018-07-11T20:21:56.145Z,18.26
2018-07-11T20:22:54.866Z,18.21
2018-07-11T20:24:47.315Z,18.39
2018-07-11T20:25:47.193Z,18.31
2018-07-11T20:27:39.890Z,18.27
2018-07-11T20:28:39.787Z,18.27
2018-07-11T20:30:32.695Z,18.31
2018-07-11T20:31:32.361Z,18.32
2018-07-11T20:33:25.048Z,18.31
2018-07-11T20:34:25.115Z,18.26
2018-07-11T20:36:17.647Z,18.29
2018-07-11T20:37:17.526Z,18.31
2018-07-11T20:39:10.388Z,18.32
2018-07-11T20:40:10.156Z,18.21
2018-07-11T20:42:02.804Z,18.32
2018-07-11T20:43:02.681Z,18.24
2018-07-11T20:44:55.362Z,18.24
2018-07-11T20:45:55.256Z,18.23
2018-07-11T20:47:47.959Z,18.20
2018-07-11T20:48:47.839Z,18.26
2018-07-11T20:50:40.535Z,18.21
2018-07-11T20:51:40.417Z,18.24
2018-07-11T20:53:33.097Z,18.35
2018-07-11T20:54:32.994Z,18.35
2018-07-11T20:56:25.708Z,18.27
2018-07-11T20:57:25.575Z,18.31
2018-07-11T20:59:18.270Z,18.32
2018-07-11T21:00:18.174Z,18.29
2018-07-11T21:02:10.896Z,18.34
2018-07-11T21:03:10.854Z,18.26
2018-07-11T21:05:03.453Z,18.27
2018-07-11T21:06:03.353Z,18.26
2018-07-11T21:07:56.053Z,18.26
2018-07-11T21:08:55.931Z,18.27
2018-07-11T21:10:48.618Z,18.27
2018-07-11T21:11:48.516Z,18.34
2018-07-11T21:13:41.215Z,18.31
2018-07-11T21:14:41.090Z,18.24
2018-07-11T21:16:33.769Z,18.29
2018-07-11T21:17:33.858Z,18.29
2018-07-11T21:19:26.363Z,18.39
2018-07-11T21:20:26.243Z,18.32
2018-07-11T21:22:18.949Z,18.39
2018-07-11T21:23:18.819Z,18.35
2018-07-11T21:25:11.494Z,18.32
2018-07-11T21:26:11.394Z,18.38
2018-07-11T21:28:04.106Z,18.21
2018-07-11T21:29:03.983Z,18.31
2018-07-11T21:30:56.675Z,18.27
2018-07-11T21:31:56.583Z,18.32
2018-07-11T21:33:49.273Z,18.24
2018-07-11T21:34:49.154Z,18.34
2018-07-11T21:36:41.837Z,18.27
2018-07-11T21:37:41.741Z,18.31
2018-07-11T21:39:34.436Z,18.27
2018-07-11T21:40:34.320Z,18.27
2018-07-11T21:42:27.000Z,18.29
2018-07-11T21:43:26.895Z,18.32
2018-07-11T21:45:19.594Z,18.31
2018-07-11T21:46:19.477Z,18.24
2018-07-11T21:48:12.155Z,18.27
2018-07-11T21:49:12.056Z,18.35
2018-07-11T21:51:04.758Z,18.31
2018-07-11T21:52:04.634Z,18.27
2018-07-11T21:53:57.316Z,18.27
2018-07-11T21:54:57.211Z,18.31
2018-07-11T21:56:49.914Z,18.26
2018-07-11T21:57:49.785Z,18.19
2018-07-11T21:59:42.493Z,18.20
